sensor_id;sensor_type;location;lat;lon;timestamp;temperature;humidity
34153;DHT22;20426;48.372;10.888;2023-06-04T00:00:05;16.50;90.10
34153;DHT22;20426;48.372;10.888;2023-06-04T00:00:36;16.50;90.10
34153;DHT22;20426;48.372;10.888;2023-06-04T00:01:06;16.40;90.10
34153;DHT22;20426;48.372;10.888;2023-06-04T00:01:37;16.40;90.10
34153;DHT22;20426;48.372;10.888;2023-06-04T00:02:08;16.40;90.20
34153;DHT22;20426;48.372;10.888;2023-06-04T00:02:39;16.40;90.10
34153;DHT22;20426;48.372;10.888;2023-06-04T00:03:10;16.40;90.10
34153;DHT22;20426;48.372;10.888;2023-06-04T00:03:41;16.30;90.10
34153;DHT22;20426;48.372;10.888;2023-06-04T00:04:12;16.30;90.20
34153;DHT22;20426;48.372;10.888;2023-06-04T00:04:42;16.30;90.10
34153;DHT22;20426;48.372;10.888;2023-06-04T00:05:13;16.20;90.20
34153;DHT22;20426;48.372;10.888;2023-06-04T00:05:44;16.20;90.20
34153;DHT22;20426;48.372;10.888;2023-06-04T00:06:15;16.20;90.20
34153;DHT22;20426;48.372;10.888;2023-06-04T00:06:45;16.20;90.10
34153;DHT22;20426;48.372;10.888;2023-06-04T00:07:16;16.20;90.10
34153;DHT22;20426;48.372;10.888;2023-06-04T00:07:47;16.20;90.20
34153;DHT22;20426;48.372;10.888;2023-06-04T00:08:17;16.20;90.20
34153;DHT22;20426;48.372;10.888;2023-06-04T00:08:48;16.20;90.30
34153;DHT22;20426;48.372;10.888;2023-06-04T00:09:19;16.20;90.20
34153;DHT22;20426;48.372;10.888;2023-06-04T00:09:50;16.20;90.30
34153;DHT22;20426;48.372;10.888;2023-06-04T00:10:20;16.10;90.20
34153;DHT22;20426;48.372;10.888;2023-06-04T00:10:51;16.20;90.30
34153;DHT22;20426;48.372;10.888;2023-06-04T00:11:22;16.10;90.20
34153;DHT22;20426;48.372;10.888;2023-06-04T00:11:53;16.20;90.30
34153;DHT22;20426;48.372;10.888;2023-06-04T00:12:23;16.20;90.30
34153;DHT22;20426;48.372;10.888;2023-06-04T00:12:54;16.10;90.20
34153;DHT22;20426;48.372;10.888;2023-06-04T00:13:25;16.10;90.20
34153;DHT22;20426;48.372;10.888;2023-06-04T00:13:56;16.10;90.20
34153;DHT22;20426;48.372;10.888;2023-06-04T00:14:26;16.10;90.20
34153;DHT22;20426;48.372;10.888;2023-06-04T00:14:57;16.10;90.20
34153;DHT22;20426;48.372;10.888;2023-06-04T00:15:28;16.20;90.30
34153;DHT22;20426;48.372;10.888;2023-06-04T00:15:58;16.10;90.20
34153;DHT22;20426;48.372;10.888;2023-06-04T00:16:29;16.10;90.30
34153;DHT22;20426;48.372;10.888;2023-06-04T00:17:00;16.10;90.30
34153;DHT22;20426;48.372;10.888;2023-06-04T00:17:31;16.10;90.20
34153;DHT22;20426;48.372;10.888;2023-06-04T00:18:01;16.10;90.20
34153;DHT22;20426;48.372;10.888;2023-06-04T00:18:32;16.10;90.10
34153;DHT22;20426;48.372;10.888;2023-06-04T00:19:03;16.10;90.20
34153;DHT22;20426;48.372;10.888;2023-06-04T00:19:33;16.10;90.10
34153;DHT22;20426;48.372;10.888;2023-06-04T00:20:04;16.00;90.00
34153;DHT22;20426;48.372;10.888;2023-06-04T00:20:35;16.00;90.10
34153;DHT22;20426;48.372;10.888;2023-06-04T00:21:06;16.00;90.10
34153;DHT22;20426;48.372;10.888;2023-06-04T00:21:37;16.00;90.10
34153;DHT22;20426;48.372;10.888;2023-06-04T00:22:08;16.00;90.10
34153;DHT22;20426;48.372;10.888;2023-06-04T00:22:39;16.00;90.10
34153;DHT22;20426;48.372;10.888;2023-06-04T00:23:12;16.00;90.10
34153;DHT22;20426;48.372;10.888;2023-06-04T00:23:42;16.00;90.10
34153;DHT22;20426;48.372;10.888;2023-06-04T00:24:13;16.00;90.20
34153;DHT22;20426;48.372;10.888;2023-06-04T00:24:44;16.00;90.30
34153;DHT22;20426;48.372;10.888;2023-06-04T00:25:14;15.90;90.30
34153;DHT22;20426;48.372;10.888;2023-06-04T00:25:45;15.90;90.20
34153;DHT22;20426;48.372;10.888;2023-06-04T00:26:16;15.90;90.20
34153;DHT22;20426;48.372;10.888;2023-06-04T00:26:47;15.90;90.20
34153;DHT22;20426;48.372;10.888;2023-06-04T00:27:17;15.90;90.20
34153;DHT22;20426;48.372;10.888;2023-06-04T00:27:48;15.90;90.30
34153;DHT22;20426;48.372;10.888;2023-06-04T00:28:19;15.90;90.30
34153;DHT22;20426;48.372;10.888;2023-06-04T00:28:49;15.90;90.30
34153;DHT22;20426;48.372;10.888;2023-06-04T00:29:20;15.90;90.20
34153;DHT22;20426;48.372;10.888;2023-06-04T00:29:51;15.90;90.20
34153;DHT22;20426;48.372;10.888;2023-06-04T00:30:21;15.90;90.20
34153;DHT22;20426;48.372;10.888;2023-06-04T00:30:52;15.90;90.10
34153;DHT22;20426;48.372;10.888;2023-06-04T00:31:23;15.90;89.90
34153;DHT22;20426;48.372;10.888;2023-06-04T00:31:54;15.90;89.80
34153;DHT22;20426;48.372;10.888;2023-06-04T00:32:25;15.90;90.00
34153;DHT22;20426;48.372;10.888;2023-06-04T00:32:55;15.90;90.00
34153;DHT22;20426;48.372;10.888;2023-06-04T00:33:26;15.80;90.00
34153;DHT22;20426;48.372;10.888;2023-06-04T00:33:57;15.80;89.90
34153;DHT22;20426;48.372;10.888;2023-06-04T00:34:27;15.80;90.10
34153;DHT22;20426;48.372;10.888;2023-06-04T00:34:58;15.80;90.20
34153;DHT22;20426;48.372;10.888;2023-06-04T00:35:29;15.70;90.10
34153;DHT22;20426;48.372;10.888;2023-06-04T00:35:59;15.70;90.10
34153;DHT22;20426;48.372;10.888;2023-06-04T00:36:30;15.70;90.10
34153;DHT22;20426;48.372;10.888;2023-06-04T00:37:00;15.70;90.20
34153;DHT22;20426;48.372;10.888;2023-06-04T00:37:34;15.70;90.10
34153;DHT22;20426;48.372;10.888;2023-06-04T00:38:04;15.70;90.10
34153;DHT22;20426;48.372;10.888;2023-06-04T00:38:35;15.70;90.10
34153;DHT22;20426;48.372;10.888;2023-06-04T00:39:06;15.70;90.20
34153;DHT22;20426;48.372;10.888;2023-06-04T00:39:37;15.70;90.20
34153;DHT22;20426;48.372;10.888;2023-06-04T00:40:08;15.70;90.20
34153;DHT22;20426;48.372;10.888;2023-06-04T00:40:38;15.70;90.20
34153;DHT22;20426;48.372;10.888;2023-06-04T00:41:09;15.70;90.20
34153;DHT22;20426;48.372;10.888;2023-06-04T00:41:40;15.70;90.10
34153;DHT22;20426;48.372;10.888;2023-06-04T00:42:10;15.60;90.20
34153;DHT22;20426;48.372;10.888;2023-06-04T00:42:41;15.60;90.20
34153;DHT22;20426;48.372;10.888;2023-06-04T00:43:12;15.60;90.30
34153;DHT22;20426;48.372;10.888;2023-06-04T00:43:44;15.60;90.20
34153;DHT22;20426;48.372;10.888;2023-06-04T00:44:26;15.60;90.30
34153;DHT22;20426;48.372;10.888;2023-06-04T00:44:58;15.60;90.30
34153;DHT22;20426;48.372;10.888;2023-06-04T00:45:28;15.50;90.30
34153;DHT22;20426;48.372;10.888;2023-06-04T00:46:01;15.50;90.30
34153;DHT22;20426;48.372;10.888;2023-06-04T00:46:34;15.50;90.40
34153;DHT22;20426;48.372;10.888;2023-06-04T00:47:07;15.60;90.50
34153;DHT22;20426;48.372;10.888;2023-06-04T00:47:38;15.60;90.40
34153;DHT22;20426;48.372;10.888;2023-06-04T00:48:09;15.60;90.40
34153;DHT22;20426;48.372;10.888;2023-06-04T00:48:40;15.60;90.30
34153;DHT22;20426;48.372;10.888;2023-06-04T00:49:13;15.60;90.20
34153;DHT22;20426;48.372;10.888;2023-06-04T00:49:44;15.60;90.20
34153;DHT22;20426;48.372;10.888;2023-06-04T00:50:15;15.60;90.30
34153;DHT22;20426;48.372;10.888;2023-06-04T00:50:47;15.60;90.30
34153;DHT22;20426;48.372;10.888;2023-06-04T00:51:19;15.60;90.30
34153;DHT22;20426;48.372;10.888;2023-06-04T00:51:51;15.50;90.30
34153;DHT22;20426;48.372;10.888;2023-06-04T00:52:22;15.50;90.30
34153;DHT22;20426;48.372;10.888;2023-06-04T00:52:54;15.50;90.30
34153;DHT22;20426;48.372;10.888;2023-06-04T00:53:26;15.50;90.30
34153;DHT22;20426;48.372;10.888;2023-06-04T00:53:58;15.40;90.30
34153;DHT22;20426;48.372;10.888;2023-06-04T00:54:30;15.40;90.30
34153;DHT22;20426;48.372;10.888;2023-06-04T00:55:03;15.40;90.40
34153;DHT22;20426;48.372;10.888;2023-06-04T00:55:33;15.40;90.40
34153;DHT22;20426;48.372;10.888;2023-06-04T00:56:05;15.50;90.50
34153;DHT22;20426;48.372;10.888;2023-06-04T00:56:36;15.40;90.30
34153;DHT22;20426;48.372;10.888;2023-06-04T00:57:07;15.40;90.40
34153;DHT22;20426;48.372;10.888;2023-06-04T00:57:39;15.40;90.40
34153;DHT22;20426;48.372;10.888;2023-06-04T00:58:09;15.40;90.40
34153;DHT22;20426;48.372;10.888;2023-06-04T00:58:40;15.30;90.40
34153;DHT22;20426;48.372;10.888;2023-06-04T00:59:13;15.30;90.40
34153;DHT22;20426;48.372;10.888;2023-06-04T00:59:44;15.30;90.40
34153;DHT22;20426;48.372;10.888;2023-06-04T01:00:15;15.30;90.50
34153;DHT22;20426;48.372;10.888;2023-06-04T01:00:46;15.30;90.50
34153;DHT22;20426;48.372;10.888;2023-06-04T01:02:11;15.30;90.50
34153;DHT22;20426;48.372;10.888;2023-06-04T01:02:45;15.30;90.50
34153;DHT22;20426;48.372;10.888;2023-06-04T01:03:23;15.30;90.50
34153;DHT22;20426;48.372;10.888;2023-06-04T01:03:58;15.30;90.50
34153;DHT22;20426;48.372;10.888;2023-06-04T01:06:13;15.30;90.50
34153;DHT22;20426;48.372;10.888;2023-06-04T01:06:49;15.30;90.50
34153;DHT22;20426;48.372;10.888;2023-06-04T01:07:21;15.30;90.50
34153;DHT22;20426;48.372;10.888;2023-06-04T01:07:52;15.30;90.50
34153;DHT22;20426;48.372;10.888;2023-06-04T01:08:23;15.30;90.50
34153;DHT22;20426;48.372;10.888;2023-06-04T01:08:57;15.30;90.50
34153;DHT22;20426;48.372;10.888;2023-06-04T01:09:29;15.30;90.50
34153;DHT22;20426;48.372;10.888;2023-06-04T01:10:01;15.20;90.50
34153;DHT22;20426;48.372;10.888;2023-06-04T01:10:31;15.20;90.60
34153;DHT22;20426;48.372;10.888;2023-06-04T01:11:02;15.20;90.60
34153;DHT22;20426;48.372;10.888;2023-06-04T01:11:37;15.20;90.50
34153;DHT22;20426;48.372;10.888;2023-06-04T01:12:09;15.20;90.50
34153;DHT22;20426;48.372;10.888;2023-06-04T01:12:41;15.30;90.60
34153;DHT22;20426;48.372;10.888;2023-06-04T01:13:12;15.30;90.60
34153;DHT22;20426;48.372;10.888;2023-06-04T01:13:43;15.30;90.50
34153;DHT22;20426;48.372;10.888;2023-06-04T01:14:13;15.30;90.50
34153;DHT22;20426;48.372;10.888;2023-06-04T01:14:46;15.30;90.50
34153;DHT22;20426;48.372;10.888;2023-06-04T01:15:17;15.30;90.40
34153;DHT22;20426;48.372;10.888;2023-06-04T01:15:48;15.30;90.50
34153;DHT22;20426;48.372;10.888;2023-06-04T01:16:18;15.30;90.50
34153;DHT22;20426;48.372;10.888;2023-06-04T01:16:59;15.30;90.50
34153;DHT22;20426;48.372;10.888;2023-06-04T01:17:41;15.30;90.50
34153;DHT22;20426;48.372;10.888;2023-06-04T01:18:15;15.30;90.50
34153;DHT22;20426;48.372;10.888;2023-06-04T01:18:59;15.30;90.50
34153;DHT22;20426;48.372;10.888;2023-06-04T01:20:36;15.30;90.50
34153;DHT22;20426;48.372;10.888;2023-06-04T01:21:09;15.30;90.50
34153;DHT22;20426;48.372;10.888;2023-06-04T01:21:43;15.30;90.50
34153;DHT22;20426;48.372;10.888;2023-06-04T01:23:51;15.20;90.60
34153;DHT22;20426;48.372;10.888;2023-06-04T01:24:34;15.20;90.60
34153;DHT22;20426;48.372;10.888;2023-06-04T01:25:27;15.20;90.70
34153;DHT22;20426;48.372;10.888;2023-06-04T01:26:01;15.20;90.80
34153;DHT22;20426;48.372;10.888;2023-06-04T01:26:33;15.20;90.70
34153;DHT22;20426;48.372;10.888;2023-06-04T01:27:05;15.20;90.70
34153;DHT22;20426;48.372;10.888;2023-06-04T01:27:36;15.20;90.70
34153;DHT22;20426;48.372;10.888;2023-06-04T01:28:08;15.20;91.00
34153;DHT22;20426;48.372;10.888;2023-06-04T01:28:43;15.20;90.70
34153;DHT22;20426;48.372;10.888;2023-06-04T01:29:16;15.20;90.80
34153;DHT22;20426;48.372;10.888;2023-06-04T01:29:46;15.20;90.90
34153;DHT22;20426;48.372;10.888;2023-06-04T01:30:31;15.20;90.90
34153;DHT22;20426;48.372;10.888;2023-06-04T01:31:04;15.20;91.00
34153;DHT22;20426;48.372;10.888;2023-06-04T01:31:34;15.20;91.00
34153;DHT22;20426;48.372;10.888;2023-06-04T01:32:06;15.20;91.00
34153;DHT22;20426;48.372;10.888;2023-06-04T01:32:37;15.20;91.00
34153;DHT22;20426;48.372;10.888;2023-06-04T01:33:09;15.20;91.10
34153;DHT22;20426;48.372;10.888;2023-06-04T01:33:40;15.20;91.00
34153;DHT22;20426;48.372;10.888;2023-06-04T01:34:11;15.30;91.00
34153;DHT22;20426;48.372;10.888;2023-06-04T01:34:46;15.30;91.10
34153;DHT22;20426;48.372;10.888;2023-06-04T01:35:17;15.20;91.00
34153;DHT22;20426;48.372;10.888;2023-06-04T01:35:47;15.20;91.00
34153;DHT22;20426;48.372;10.888;2023-06-04T01:36:18;15.20;91.00
34153;DHT22;20426;48.372;10.888;2023-06-04T01:36:49;15.20;91.10
34153;DHT22;20426;48.372;10.888;2023-06-04T01:37:20;15.20;91.10
34153;DHT22;20426;48.372;10.888;2023-06-04T01:37:51;15.20;91.10
34153;DHT22;20426;48.372;10.888;2023-06-04T01:38:23;15.20;91.10
34153;DHT22;20426;48.372;10.888;2023-06-04T01:38:53;15.20;91.00
34153;DHT22;20426;48.372;10.888;2023-06-04T01:39:24;15.20;91.00
34153;DHT22;20426;48.372;10.888;2023-06-04T01:39:55;15.20;91.00
34153;DHT22;20426;48.372;10.888;2023-06-04T01:40:26;15.20;91.00
34153;DHT22;20426;48.372;10.888;2023-06-04T01:40:57;15.20;91.00
34153;DHT22;20426;48.372;10.888;2023-06-04T01:41:31;15.20;91.00
34153;DHT22;20426;48.372;10.888;2023-06-04T01:42:02;15.20;91.00
34153;DHT22;20426;48.372;10.888;2023-06-04T01:42:33;15.20;91.10
34153;DHT22;20426;48.372;10.888;2023-06-04T01:43:03;15.10;91.10
34153;DHT22;20426;48.372;10.888;2023-06-04T01:43:34;15.10;91.00
34153;DHT22;20426;48.372;10.888;2023-06-04T01:44:06;15.10;91.00
34153;DHT22;20426;48.372;10.888;2023-06-04T01:44:36;15.10;91.00
34153;DHT22;20426;48.372;10.888;2023-06-04T01:45:08;15.10;91.00
34153;DHT22;20426;48.372;10.888;2023-06-04T01:45:39;15.10;90.90
34153;DHT22;20426;48.372;10.888;2023-06-04T01:46:10;15.10;91.00
34153;DHT22;20426;48.372;10.888;2023-06-04T01:46:40;15.00;91.20
34153;DHT22;20426;48.372;10.888;2023-06-04T01:47:11;15.00;91.20
34153;DHT22;20426;48.372;10.888;2023-06-04T01:47:41;15.00;91.00
34153;DHT22;20426;48.372;10.888;2023-06-04T01:48:12;15.00;91.00
34153;DHT22;20426;48.372;10.888;2023-06-04T01:48:43;15.00;91.00
34153;DHT22;20426;48.372;10.888;2023-06-04T01:49:13;15.00;91.00
34153;DHT22;20426;48.372;10.888;2023-06-04T01:49:44;15.00;91.00
34153;DHT22;20426;48.372;10.888;2023-06-04T01:50:15;15.00;90.90
34153;DHT22;20426;48.372;10.888;2023-06-04T01:50:46;15.00;90.90
34153;DHT22;20426;48.372;10.888;2023-06-04T01:51:16;14.90;91.00
34153;DHT22;20426;48.372;10.888;2023-06-04T01:51:47;14.90;91.00
34153;DHT22;20426;48.372;10.888;2023-06-04T01:52:18;14.90;91.00
34153;DHT22;20426;48.372;10.888;2023-06-04T01:52:51;14.80;91.00
34153;DHT22;20426;48.372;10.888;2023-06-04T01:53:22;14.80;91.10
34153;DHT22;20426;48.372;10.888;2023-06-04T01:53:53;14.80;91.10
34153;DHT22;20426;48.372;10.888;2023-06-04T01:54:23;14.80;91.20
34153;DHT22;20426;48.372;10.888;2023-06-04T01:54:54;14.80;91.20
34153;DHT22;20426;48.372;10.888;2023-06-04T01:55:26;14.80;91.20
34153;DHT22;20426;48.372;10.888;2023-06-04T01:55:58;14.80;91.20
34153;DHT22;20426;48.372;10.888;2023-06-04T01:56:29;14.80;91.20
34153;DHT22;20426;48.372;10.888;2023-06-04T01:57:00;14.70;91.10
34153;DHT22;20426;48.372;10.888;2023-06-04T01:57:31;14.70;91.10
34153;DHT22;20426;48.372;10.888;2023-06-04T01:58:01;14.60;91.30
34153;DHT22;20426;48.372;10.888;2023-06-04T01:58:32;14.60;91.30
34153;DHT22;20426;48.372;10.888;2023-06-04T01:59:04;14.60;91.30
34153;DHT22;20426;48.372;10.888;2023-06-04T01:59:35;14.60;91.40
34153;DHT22;20426;48.372;10.888;2023-06-04T02:00:08;14.60;91.30
34153;DHT22;20426;48.372;10.888;2023-06-04T02:00:40;14.60;91.60
34153;DHT22;20426;48.372;10.888;2023-06-04T02:01:13;14.60;91.30
34153;DHT22;20426;48.372;10.888;2023-06-04T02:01:43;14.60;91.30
34153;DHT22;20426;48.372;10.888;2023-06-04T02:02:14;14.60;91.30
34153;DHT22;20426;48.372;10.888;2023-06-04T02:02:46;14.60;91.30
34153;DHT22;20426;48.372;10.888;2023-06-04T02:03:18;14.50;91.20
34153;DHT22;20426;48.372;10.888;2023-06-04T02:03:49;14.50;91.30
34153;DHT22;20426;48.372;10.888;2023-06-04T02:04:21;14.50;91.30
34153;DHT22;20426;48.372;10.888;2023-06-04T02:04:54;14.50;91.20
34153;DHT22;20426;48.372;10.888;2023-06-04T02:05:25;14.50;91.30
34153;DHT22;20426;48.372;10.888;2023-06-04T02:05:55;14.40;91.60
34153;DHT22;20426;48.372;10.888;2023-06-04T02:06:26;14.40;91.30
34153;DHT22;20426;48.372;10.888;2023-06-04T02:07:00;14.40;91.30
34153;DHT22;20426;48.372;10.888;2023-06-04T02:07:31;14.40;91.30
34153;DHT22;20426;48.372;10.888;2023-06-04T02:08:02;14.40;91.30
34153;DHT22;20426;48.372;10.888;2023-06-04T02:08:35;14.40;91.40
34153;DHT22;20426;48.372;10.888;2023-06-04T02:09:06;14.40;91.50
34153;DHT22;20426;48.372;10.888;2023-06-04T02:09:37;14.30;91.50
34153;DHT22;20426;48.372;10.888;2023-06-04T02:10:12;14.30;91.40
34153;DHT22;20426;48.372;10.888;2023-06-04T02:10:45;14.30;91.50
34153;DHT22;20426;48.372;10.888;2023-06-04T02:11:16;14.30;91.50
34153;DHT22;20426;48.372;10.888;2023-06-04T02:11:46;14.30;91.50
34153;DHT22;20426;48.372;10.888;2023-06-04T02:12:17;14.30;91.50
34153;DHT22;20426;48.372;10.888;2023-06-04T02:13:01;14.30;91.50
34153;DHT22;20426;48.372;10.888;2023-06-04T02:13:36;14.30;91.50
34153;DHT22;20426;48.372;10.888;2023-06-04T02:14:07;14.30;91.40
34153;DHT22;20426;48.372;10.888;2023-06-04T02:14:38;14.30;91.40
34153;DHT22;20426;48.372;10.888;2023-06-04T02:15:10;14.30;91.50
34153;DHT22;20426;48.372;10.888;2023-06-04T02:15:41;14.30;91.40
34153;DHT22;20426;48.372;10.888;2023-06-04T02:16:12;14.30;91.40
34153;DHT22;20426;48.372;10.888;2023-06-04T02:16:43;14.30;91.50
34153;DHT22;20426;48.372;10.888;2023-06-04T02:17:13;14.30;91.50
34153;DHT22;20426;48.372;10.888;2023-06-04T02:17:46;14.30;91.40
34153;DHT22;20426;48.372;10.888;2023-06-04T02:18:19;14.30;91.50
34153;DHT22;20426;48.372;10.888;2023-06-04T02:18:52;14.20;91.40
34153;DHT22;20426;48.372;10.888;2023-06-04T02:19:26;14.20;91.60
34153;DHT22;20426;48.372;10.888;2023-06-04T02:19:57;14.20;91.60
34153;DHT22;20426;48.372;10.888;2023-06-04T02:20:29;14.20;91.60
34153;DHT22;20426;48.372;10.888;2023-06-04T02:20:59;14.20;91.60
34153;DHT22;20426;48.372;10.888;2023-06-04T02:21:30;14.20;91.50
34153;DHT22;20426;48.372;10.888;2023-06-04T02:22:01;14.20;91.60
34153;DHT22;20426;48.372;10.888;2023-06-04T02:22:31;14.20;91.60
34153;DHT22;20426;48.372;10.888;2023-06-04T02:23:02;14.20;91.60
34153;DHT22;20426;48.372;10.888;2023-06-04T02:23:33;14.30;91.60
34153;DHT22;20426;48.372;10.888;2023-06-04T02:24:04;14.30;91.60
34153;DHT22;20426;48.372;10.888;2023-06-04T02:24:35;14.30;91.60
34153;DHT22;20426;48.372;10.888;2023-06-04T02:25:06;14.30;91.60
34153;DHT22;20426;48.372;10.888;2023-06-04T02:25:39;14.20;91.60
34153;DHT22;20426;48.372;10.888;2023-06-04T02:26:10;14.30;91.60
34153;DHT22;20426;48.372;10.888;2023-06-04T02:26:41;14.20;91.50
34153;DHT22;20426;48.372;10.888;2023-06-04T02:27:12;14.30;91.50
34153;DHT22;20426;48.372;10.888;2023-06-04T02:27:43;14.20;91.50
34153;DHT22;20426;48.372;10.888;2023-06-04T02:28:14;14.20;91.50
34153;DHT22;20426;48.372;10.888;2023-06-04T02:28:45;14.20;91.40
34153;DHT22;20426;48.372;10.888;2023-06-04T02:29:16;14.20;91.50
34153;DHT22;20426;48.372;10.888;2023-06-04T02:29:46;14.20;91.40
34153;DHT22;20426;48.372;10.888;2023-06-04T02:30:17;14.20;91.50
34153;DHT22;20426;48.372;10.888;2023-06-04T02:30:48;14.20;91.50
34153;DHT22;20426;48.372;10.888;2023-06-04T02:31:18;14.20;91.50
34153;DHT22;20426;48.372;10.888;2023-06-04T02:31:49;14.20;91.60
34153;DHT22;20426;48.372;10.888;2023-06-04T02:32:21;14.20;91.60
34153;DHT22;20426;48.372;10.888;2023-06-04T02:32:51;14.20;91.60
34153;DHT22;20426;48.372;10.888;2023-06-04T02:33:22;14.20;91.60
34153;DHT22;20426;48.372;10.888;2023-06-04T02:33:53;14.20;91.60
34153;DHT22;20426;48.372;10.888;2023-06-04T02:34:23;14.20;91.60
34153;DHT22;20426;48.372;10.888;2023-06-04T02:34:55;14.20;91.60
34153;DHT22;20426;48.372;10.888;2023-06-04T02:35:30;14.20;91.50
34153;DHT22;20426;48.372;10.888;2023-06-04T02:36:01;14.10;91.50
34153;DHT22;20426;48.372;10.888;2023-06-04T02:36:32;14.10;91.70
34153;DHT22;20426;48.372;10.888;2023-06-04T02:37:03;14.10;91.50
34153;DHT22;20426;48.372;10.888;2023-06-04T02:37:34;14.10;91.50
34153;DHT22;20426;48.372;10.888;2023-06-04T02:38:05;14.00;91.50
34153;DHT22;20426;48.372;10.888;2023-06-04T02:38:35;14.00;91.50
34153;DHT22;20426;48.372;10.888;2023-06-04T02:39:06;14.00;91.50
34153;DHT22;20426;48.372;10.888;2023-06-04T02:39:36;14.00;91.50
34153;DHT22;20426;48.372;10.888;2023-06-04T02:40:08;14.00;91.60
34153;DHT22;20426;48.372;10.888;2023-06-04T02:40:39;14.00;91.60
34153;DHT22;20426;48.372;10.888;2023-06-04T02:41:09;14.00;91.60
34153;DHT22;20426;48.372;10.888;2023-06-04T02:41:40;14.00;91.60
34153;DHT22;20426;48.372;10.888;2023-06-04T02:42:11;14.00;91.60
34153;DHT22;20426;48.372;10.888;2023-06-04T02:42:41;14.00;91.60
34153;DHT22;20426;48.372;10.888;2023-06-04T02:43:12;14.00;91.50
34153;DHT22;20426;48.372;10.888;2023-06-04T02:43:44;14.00;91.60
34153;DHT22;20426;48.372;10.888;2023-06-04T02:44:14;14.00;91.60
34153;DHT22;20426;48.372;10.888;2023-06-04T02:44:45;14.00;91.70
34153;DHT22;20426;48.372;10.888;2023-06-04T02:45:16;14.00;91.60
34153;DHT22;20426;48.372;10.888;2023-06-04T02:45:46;14.00;91.60
34153;DHT22;20426;48.372;10.888;2023-06-04T02:46:17;14.00;91.60
34153;DHT22;20426;48.372;10.888;2023-06-04T02:46:48;13.90;91.60
34153;DHT22;20426;48.372;10.888;2023-06-04T02:47:18;13.90;91.60
34153;DHT22;20426;48.372;10.888;2023-06-04T02:47:50;13.90;91.60
34153;DHT22;20426;48.372;10.888;2023-06-04T02:48:20;13.90;91.60
34153;DHT22;20426;48.372;10.888;2023-06-04T02:48:51;13.90;91.60
34153;DHT22;20426;48.372;10.888;2023-06-04T02:49:22;13.90;91.60
34153;DHT22;20426;48.372;10.888;2023-06-04T02:49:52;13.90;91.70
34153;DHT22;20426;48.372;10.888;2023-06-04T02:50:23;13.80;91.70
34153;DHT22;20426;48.372;10.888;2023-06-04T02:50:54;13.80;91.70
34153;DHT22;20426;48.372;10.888;2023-06-04T02:51:25;13.80;91.70
34153;DHT22;20426;48.372;10.888;2023-06-04T02:51:56;13.80;91.80
34153;DHT22;20426;48.372;10.888;2023-06-04T02:52:26;13.80;91.80
34153;DHT22;20426;48.372;10.888;2023-06-04T02:52:57;13.80;91.80
34153;DHT22;20426;48.372;10.888;2023-06-04T02:53:28;13.90;91.80
34153;DHT22;20426;48.372;10.888;2023-06-04T02:53:58;13.90;91.80
34153;DHT22;20426;48.372;10.888;2023-06-04T02:54:29;13.90;91.80
34153;DHT22;20426;48.372;10.888;2023-06-04T02:55:00;13.90;92.10
34153;DHT22;20426;48.372;10.888;2023-06-04T02:55:34;13.90;91.80
34153;DHT22;20426;48.372;10.888;2023-06-04T02:56:06;13.90;91.80
34153;DHT22;20426;48.372;10.888;2023-06-04T02:56:37;13.90;92.10
34153;DHT22;20426;48.372;10.888;2023-06-04T02:57:08;13.90;91.80
34153;DHT22;20426;48.372;10.888;2023-06-04T02:57:42;13.90;91.80
34153;DHT22;20426;48.372;10.888;2023-06-04T02:58:13;13.90;91.90
34153;DHT22;20426;48.372;10.888;2023-06-04T02:58:54;13.90;91.80
34153;DHT22;20426;48.372;10.888;2023-06-04T02:59:26;13.90;91.80
34153;DHT22;20426;48.372;10.888;2023-06-04T02:59:56;13.90;91.80
34153;DHT22;20426;48.372;10.888;2023-06-04T03:00:27;13.90;91.80
34153;DHT22;20426;48.372;10.888;2023-06-04T03:00:58;13.90;91.90
34153;DHT22;20426;48.372;10.888;2023-06-04T03:01:29;13.90;91.80
34153;DHT22;20426;48.372;10.888;2023-06-04T03:01:59;13.90;91.80
34153;DHT22;20426;48.372;10.888;2023-06-04T03:02:30;13.90;91.80
34153;DHT22;20426;48.372;10.888;2023-06-04T03:03:01;13.90;91.90
34153;DHT22;20426;48.372;10.888;2023-06-04T03:03:32;13.90;91.90
34153;DHT22;20426;48.372;10.888;2023-06-04T03:04:03;13.90;91.80
34153;DHT22;20426;48.372;10.888;2023-06-04T03:04:35;13.90;91.90
34153;DHT22;20426;48.372;10.888;2023-06-04T03:05:07;13.90;91.90
34153;DHT22;20426;48.372;10.888;2023-06-04T03:05:39;13.90;91.90
34153;DHT22;20426;48.372;10.888;2023-06-04T03:06:10;13.90;91.80
34153;DHT22;20426;48.372;10.888;2023-06-04T03:06:42;13.90;91.80
34153;DHT22;20426;48.372;10.888;2023-06-04T03:07:16;13.90;91.80
34153;DHT22;20426;48.372;10.888;2023-06-04T03:07:50;13.80;92.10
34153;DHT22;20426;48.372;10.888;2023-06-04T03:08:21;13.90;91.80
34153;DHT22;20426;48.372;10.888;2023-06-04T03:08:52;13.80;91.70
34153;DHT22;20426;48.372;10.888;2023-06-04T03:09:22;13.80;91.70
34153;DHT22;20426;48.372;10.888;2023-06-04T03:09:53;13.80;91.70
34153;DHT22;20426;48.372;10.888;2023-06-04T03:10:24;13.80;91.70
34153;DHT22;20426;48.372;10.888;2023-06-04T03:10:55;13.80;91.70
34153;DHT22;20426;48.372;10.888;2023-06-04T03:11:27;13.80;91.70
34153;DHT22;20426;48.372;10.888;2023-06-04T03:12:00;13.80;91.80
34153;DHT22;20426;48.372;10.888;2023-06-04T03:12:32;13.80;91.80
34153;DHT22;20426;48.372;10.888;2023-06-04T03:13:03;13.80;91.80
34153;DHT22;20426;48.372;10.888;2023-06-04T03:13:34;13.80;91.80
34153;DHT22;20426;48.372;10.888;2023-06-04T03:14:05;13.80;91.80
34153;DHT22;20426;48.372;10.888;2023-06-04T03:14:36;13.80;91.80
34153;DHT22;20426;48.372;10.888;2023-06-04T03:15:07;13.80;91.80
34153;DHT22;20426;48.372;10.888;2023-06-04T03:15:38;13.80;91.80
34153;DHT22;20426;48.372;10.888;2023-06-04T03:16:09;13.80;91.80
34153;DHT22;20426;48.372;10.888;2023-06-04T03:16:40;13.80;91.80
34153;DHT22;20426;48.372;10.888;2023-06-04T03:17:11;13.80;91.90
34153;DHT22;20426;48.372;10.888;2023-06-04T03:17:43;13.80;91.90
34153;DHT22;20426;48.372;10.888;2023-06-04T03:18:14;13.80;91.90
34153;DHT22;20426;48.372;10.888;2023-06-04T03:18:45;13.80;91.90
34153;DHT22;20426;48.372;10.888;2023-06-04T03:19:16;13.80;91.90
34153;DHT22;20426;48.372;10.888;2023-06-04T03:19:47;13.80;91.90
34153;DHT22;20426;48.372;10.888;2023-06-04T03:20:18;13.80;92.20
34153;DHT22;20426;48.372;10.888;2023-06-04T03:20:49;13.80;92.00
34153;DHT22;20426;48.372;10.888;2023-06-04T03:21:20;13.80;92.00